Wetterstation Vordersexau
Wetterdaten: Woche 23.12.13 - 29.12.13 (KW52)
Datum Zeit Temp. A. Feuchte A. Luftdruck Regen Wind Richtung Taupunkt Windchill Windben
23.12.2013 00:00 10,5 C 74 % 1020,8 hPa 0,0 l/m 20,1 km/h S-SW 6,1 C 3,9 C 11,2 km/h
23.12.2013 01:00 10,8 C 74 % 1020,5 hPa 0,0 l/m 32,4 km/h SW 6,4 C 1,3 C 18,0 km/h
23.12.2013 02:00 10,3 C 79 % 1021,0 hPa 0,0 l/m 15,6 km/h W-SW 6,8 C 5,3 C 8,6 km/h
23.12.2013 03:00 9,9 C 82 % 1021,4 hPa 0,0 l/m 18,8 km/h W-SW 7,0 C 3,6 C 10,4 km/h
23.12.2013 04:00 9,8 C 82 % 1021,1 hPa 0,0 l/m 33,7 km/h W-SW 6,9 C -0,4 C 18,7 km/h
23.12.2013 05:00 9,3 C 84 % 1020,6 hPa 0,0 l/m 36,3 km/h W-SW 6,7 C -1,6 C 20,2 km/h
23.12.2013 06:00 8,6 C 86 % 1020,3 hPa 0,0 l/m 23,3 km/h S-SW 6,4 C 0,4 C 13,0 km/h
23.12.2013 07:00 9,1 C 85 % 1020,1 hPa 0,0 l/m 24,6 km/h S-SW 6,7 C 0,7 C 13,7 km/h
23.12.2013 08:00 9,8 C 82 % 1020,0 hPa 0,0 l/m 16,8 km/h S-SW 6,9 C 4,2 C 9,4 km/h
23.12.2013 09:00 9,8 C 83 % 1019,8 hPa 0,0 l/m 18,1 km/h SW 7,1 C 3,7 C 10,1 km/h
23.12.2013 10:00 10,3 C 82 % 1019,9 hPa 0,0 l/m 26,6 km/h SW 7,4 C 1,8 C 14,8 km/h
23.12.2013 11:00 11,8 C 78 % 1019,5 hPa 0,0 l/m 18,8 km/h SW 8,1 C 6,0 C 10,4 km/h
23.12.2013 12:00 12,8 C 75 % 1018,5 hPa 0,0 l/m 10,4 km/h SW 8,5 C 10,5 C 5,8 km/h
23.12.2013 13:00 13,8 C 69 % 1017,2 hPa 0,0 l/m 22,7 km/h S-SW 8,2 C 7,5 C 12,6 km/h
23.12.2013 14:00 14,4 C 66 % 1016,2 hPa 0,0 l/m 21,4 km/h W 8,1 C 8,6 C 11,9 km/h
23.12.2013 15:00 16,2 C 61 % 1015,2 hPa 0,0 l/m 0,0 km/h S-SW 8,7 C 16,2 C 0,0 km/h
23.12.2013 16:00 14,4 C 61 % 1014,0 hPa 0,0 l/m 0,0 km/h NO 7,0 C 14,4 C 0,0 km/h
23.12.2013 17:00 7,6 C 79 % 1013,6 hPa 0,0 l/m 0,0 km/h O-SO 4,2 C 7,6 C 0,0 km/h
23.12.2013 18:00 7,6 C 81 % 1012,4 hPa 0,0 l/m 3,9 km/h O-SO 4,6 C 7,6 C 2,2 km/h
23.12.2013 19:00 8,4 C 78 % 1012,1 hPa 0,0 l/m 6,5 km/h O-NO 4,8 C 8,3 C 3,6 km/h
23.12.2013 20:00 6,5 C 81 % 1011,2 hPa 0,0 l/m 0,0 km/h O-SO 3,5 C 6,5 C 0,0 km/h
23.12.2013 21:00 7,3 C 81 % 1010,3 hPa 0,0 l/m 0,0 km/h S-SO 4,3 C 7,3 C 0,0 km/h
23.12.2013 22:00 6,3 C 82 % 1009,8 hPa 0,0 l/m 14,3 km/h O-NO 3,5 C 1,0 C 7,9 km/h
23.12.2013 23:00 5,8 C 81 % 1009,5 hPa 0,0 l/m 0,0 km/h N-NO 2,8 C 5,8 C 0,0 km/h
24.12.2013 00:00 4,4 C 83 % 1008,4 hPa 0,0 l/m 2,6 km/h N-NO 1,8 C 4,4 C 1,4 km/h
24.12.2013 01:00 2,9 C 84 % 1007,7 hPa 0,0 l/m 0,0 km/h O 0,5 C 2,9 C 0,0 km/h
24.12.2013 02:00 2,1 C 86 % 1007,0 hPa 0,0 l/m 0,0 km/h O 0,0 C 2,1 C 0,0 km/h
24.12.2013 03:00 1,8 C 86 % 1006,0 hPa 0,0 l/m 0,0 km/h O-SO -0,3 C 1,8 C 0,0 km/h
24.12.2013 04:00 1,1 C 86 % 1005,2 hPa 0,0 l/m 5,2 km/h O-SO -1,0 C 1,1 C 2,9 km/h
24.12.2013 05:00 1,3 C 86 % 1004,9 hPa 0,0 l/m 0,0 km/h O-SO -0,8 C 1,3 C 0,0 km/h
24.12.2013 06:00 1,8 C 85 % 1004,4 hPa 0,0 l/m 0,0 km/h O-NO -0,4 C 1,8 C 0,0 km/h
24.12.2013 07:00 1,8 C 85 % 1003,7 hPa 0,0 l/m 0,0 km/h O-SO -0,4 C 1,8 C 0,0 km/h
24.12.2013 08:00 1,6 C 85 % 1002,9 hPa 0,0 l/m 0,0 km/h NO -0,6 C 1,6 C 0,0 km/h
24.12.2013 09:00 3,4 C 84 % 1001,8 hPa 0,0 l/m 0,0 km/h N-NO 1,0 C 3,4 C 0,0 km/h
24.12.2013 10:00 7,1 C 85 % 1001,7 hPa 0,0 l/m 0,0 km/h S 4,8 C 7,1 C 0,0 km/h
24.12.2013 11:00 17,5 C 58 % 1001,0 hPa 0,0 l/m 19,4 km/h S-SW 9,1 C 13,1 C 10,8 km/h
24.12.2013 12:00 18,6 C 40 % 1000,0 hPa 0,0 l/m 22,7 km/h SW 4,7 C 13,9 C 12,6 km/h
24.12.2013 13:00 18,0 C 40 % 998,7 hPa 0,0 l/m 3,2 km/h S-SO 4,2 C 18,0 C 1,8 km/h
24.12.2013 14:00 16,3 C 44 % 998,1 hPa 0,0 l/m 25,3 km/h S-SO 4,0 C 10,3 C 14,0 km/h
24.12.2013 15:00 15,8 C 44 % 998,0 hPa 0,0 l/m 24,6 km/h SO 3,6 C 9,8 C 13,7 km/h
24.12.2013 16:00 14,3 C 46 % 997,6 hPa 0,0 l/m 14,9 km/h S 2,8 C 10,4 C 8,3 km/h
24.12.2013 17:00 14,2 C 48 % 996,6 hPa 0,0 l/m 15,6 km/h S 3,4 C 10,0 C 8,6 km/h
24.12.2013 18:00 13,6 C 49 % 996,0 hPa 0,0 l/m 4,5 km/h S-SO 3,1 C 13,6 C 2,5 km/h
24.12.2013 19:00 12,9 C 53 % 996,1 hPa 0,0 l/m 3,2 km/h S-SO 3,6 C 12,9 C 1,8 km/h
24.12.2013 20:00 12,6 C 54 % 995,2 hPa 0,0 l/m 8,4 km/h SO 3,5 C 11,3 C 4,7 km/h
24.12.2013 21:00 13,0 C 51 % 994,5 hPa 0,0 l/m 21,4 km/h SO 3,1 C 6,8 C 11,9 km/h
24.12.2013 22:00 11,8 C 56 % 993,6 hPa 0,0 l/m 7,8 km/h SO 3,3 C 10,9 C 4,3 km/h
24.12.2013 23:00 11,9 C 55 % 993,1 hPa 0,0 l/m 0,0 km/h O-SO 3,2 C 11,9 C 0,0 km/h
25.12.2013 00:00 11,3 C 57 % 992,3 hPa 0,0 l/m 16,8 km/h O-SO 3,1 C 6,0 C 9,4 km/h
25.12.2013 01:00 12,9 C 51 % 991,3 hPa 0,0 l/m 16,2 km/h O-SO 3,0 C 8,2 C 9,0 km/h
25.12.2013 02:00 11,6 C 55 % 990,5 hPa 0,0 l/m 25,9 km/h SO 2,9 C 3,8 C 14,4 km/h
25.12.2013 03:00 13,2 C 49 % 990,2 hPa 0,0 l/m 8,4 km/h NO 2,7 C 12,0 C 4,7 km/h
25.12.2013 04:00 11,7 C 55 % 990,1 hPa 0,0 l/m 0,0 km/h S-SW 3,0 C 11,7 C 0,0 km/h
25.12.2013 05:00 13,1 C 55 % 989,9 hPa 0,0 l/m 7,1 km/h S 4,3 C 12,7 C 4,0 km/h
25.12.2013 06:00 10,6 C 66 % 990,5 hPa 0,0 l/m 0,0 km/h O-SO 4,5 C 10,6 C 0,0 km/h
25.12.2013 07:00 9,1 C 76 % 991,3 hPa 0,0 l/m 0,0 km/h SO 5,1 C 9,1 C 0,0 km/h
25.12.2013 08:00 8,8 C 82 % 992,2 hPa 0,0 l/m 1,9 km/h O-NO 5,9 C 8,8 C 1,1 km/h
25.12.2013 09:00 8,4 C 84 % 991,9 hPa 1,6 l/m 0,0 km/h W 5,9 C 8,4 C 0,0 km/h
25.12.2013 10:00 8,2 C 85 % 992,9 hPa 5,7 l/m 0,0 km/h S 5,8 C 8,2 C 0,0 km/h
25.12.2013 11:00 7,3 C 85 % 992,9 hPa 4,1 l/m 24,0 km/h S 4,9 C -1,5 C 13,3 km/h
25.12.2013 12:00 6,7 C 86 % 992,5 hPa 2,6 l/m 3,2 km/h S 4,5 C 6,7 C 1,8 km/h
25.12.2013 13:00 5,8 C 86 % 993,3 hPa 4,7 l/m 13,6 km/h S 3,6 C 0,8 C 7,6 km/h
25.12.2013 14:00 4,9 C 86 % 993,3 hPa 3,6 l/m 3,2 km/h S-SO 2,8 C 4,9 C 1,8 km/h
25.12.2013 15:00 4,9 C 86 % 993,9 hPa 1,6 l/m 0,0 km/h SW 2,8 C 4,9 C 0,0 km/h
25.12.2013 16:00 4,6 C 85 % 994,1 hPa 2,1 l/m 0,0 km/h N-NO 2,3 C 4,6 C 0,0 km/h
25.12.2013 17:00 4,7 C 85 % 994,0 hPa 1,6 l/m 0,0 km/h NW 2,4 C 4,7 C 0,0 km/h
25.12.2013 18:00 4,7 C 84 % 993,3 hPa 1,0 l/m 0,0 km/h O-SO 2,2 C 4,7 C 0,0 km/h
25.12.2013 19:00 3,9 C 84 % 993,0 hPa 0,0 l/m 0,0 km/h SO 1,4 C 3,9 C 0,0 km/h
25.12.2013 20:00 4,3 C 83 % 992,3 hPa 0,0 l/m 2,6 km/h W-SW 1,7 C 4,3 C 1,4 km/h
25.12.2013 21:00 4,1 C 82 % 992,0 hPa 0,0 l/m 0,0 km/h N-NO 1,3 C 4,1 C 0,0 km/h
25.12.2013 22:00 4,1 C 81 % 991,2 hPa 0,0 l/m 0,0 km/h S 1,1 C 4,1 C 0,0 km/h
25.12.2013 23:00 3,9 C 81 % 991,7 hPa 0,0 l/m 0,0 km/h S-SO 0,9 C 3,9 C 0,0 km/h
26.12.2013 00:00 4,0 C 79 % 991,0 hPa 0,0 l/m 0,0 km/h S-SO 0,7 C 4,0 C 0,0 km/h
26.12.2013 01:00 4,1 C 79 % 990,3 hPa 0,0 l/m 0,0 km/h O-SO 0,8 C 4,1 C 0,0 km/h
26.12.2013 02:00 4,1 C 79 % 990,3 hPa 0,0 l/m 0,0 km/h O-SO 0,8 C 4,1 C 0,0 km/h
26.12.2013 03:00 4,2 C 79 % 990,7 hPa 0,5 l/m 0,0 km/h NO 0,9 C 4,2 C 0,0 km/h
26.12.2013 04:00 4,2 C 79 % 990,9 hPa 1,6 l/m 0,0 km/h W 0,9 C 4,2 C 0,0 km/h
26.12.2013 05:00 4,4 C 78 % 990,8 hPa 1,0 l/m 0,0 km/h W 0,9 C 4,4 C 0,0 km/h
26.12.2013 06:00 4,5 C 77 % 990,9 hPa 1,0 l/m 0,0 km/h O-SO 0,8 C 4,5 C 0,0 km/h
26.12.2013 07:00 4,5 C 77 % 991,3 hPa 1,0 l/m 2,6 km/h O-SO 0,8 C 4,5 C 1,4 km/h
26.12.2013 08:00 4,5 C 77 % 991,9 hPa 0,5 l/m 0,0 km/h SO 0,8 C 4,5 C 0,0 km/h
26.12.2013 09:00 4,4 C 76 % 992,9 hPa 1,0 l/m 0,0 km/h SO 0,5 C 4,4 C 0,0 km/h
26.12.2013 10:00 4,6 C 76 % 993,6 hPa 0,5 l/m 0,0 km/h O-SO 0,7 C 4,6 C 0,0 km/h
26.12.2013 11:00 5,0 C 75 % 994,1 hPa 0,5 l/m 0,0 km/h W 0,9 C 5,0 C 0,0 km/h
26.12.2013 12:00 5,2 C 75 % 994,6 hPa 1,0 l/m 0,0 km/h SW 1,1 C 5,2 C 0,0 km/h
26.12.2013 13:00 5,3 C 75 % 995,2 hPa 1,0 l/m 0,0 km/h W-SW 1,2 C 5,3 C 0,0 km/h
26.12.2013 14:00 5,6 C 75 % 995,7 hPa 1,0 l/m 7,1 km/h SW 1,5 C 5,0 C 4,0 km/h
26.12.2013 15:00 5,6 C 75 % 997,2 hPa 0,5 l/m 1,3 km/h SW 1,5 C 5,6 C 0,7 km/h
26.12.2013 16:00 5,2 C 76 % 999,0 hPa 1,0 l/m 1,9 km/h W-SW 1,3 C 5,2 C 1,1 km/h
26.12.2013 17:00 5,1 C 76 % 1000,4 hPa 0,5 l/m 7,8 km/h W-SW 1,2 C 3,9 C 4,3 km/h
26.12.2013 18:00 4,9 C 76 % 1001,6 hPa 0,5 l/m 0,0 km/h SW 1,0 C 4,9 C 0,0 km/h
26.12.2013 19:00 4,8 C 76 % 1002,9 hPa 0,5 l/m 0,0 km/h SW 0,9 C 4,8 C 0,0 km/h
26.12.2013 20:00 4,8 C 75 % 1004,1 hPa 0,0 l/m 1,3 km/h W 0,8 C 4,8 C 0,7 km/h
26.12.2013 21:00 4,8 C 76 % 1005,3 hPa 0,0 l/m 0,0 km/h W-SW 0,9 C 4,8 C 0,0 km/h
26.12.2013 22:00 4,3 C 76 % 1006,2 hPa 0,5 l/m 1,3 km/h SO 0,5 C 4,3 C 0,7 km/h
26.12.2013 23:00 4,2 C 77 % 1006,6 hPa 0,0 l/m 0,0 km/h O-SO 0,5 C 4,2 C 0,0 km/h
27.12.2013 00:00 3,9 C 78 % 1006,7 hPa 0,0 l/m 0,0 km/h NO 0,4 C 3,9 C 0,0 km/h
27.12.2013 01:00 3,6 C 78 % 1007,0 hPa 0,0 l/m 0,0 km/h S-SW 0,1 C 3,6 C 0,0 km/h
27.12.2013 02:00 3,9 C 77 % 1007,7 hPa 0,0 l/m 0,0 km/h S 0,2 C 3,9 C 0,0 km/h
27.12.2013 03:00 3,9 C 79 % 1008,1 hPa 0,0 l/m 0,0 km/h O-SO 0,6 C 3,9 C 0,0 km/h
27.12.2013 04:00 2,5 C 84 % 1007,9 hPa 0,0 l/m 2,6 km/h O 0,1 C 2,5 C 1,4 km/h
27.12.2013 05:00 0,4 C 83 % 1008,0 hPa 0,0 l/m 0,0 km/h NO -2,1 C 0,4 C 0,0 km/h
27.12.2013 06:00 0,2 C 82 % 1007,5 hPa 0,0 l/m 0,0 km/h O-SO -2,5 C 0,2 C 0,0 km/h
27.12.2013 07:00 -0,1 C 81 % 1007,0 hPa 0,0 l/m 0,0 km/h O -3,0 C -0,1 C 0,0 km/h
27.12.2013 08:00 -0,4 C 81 % 1006,4 hPa 0,0 l/m 0,0 km/h NO -3,3 C -0,4 C 0,0 km/h
27.12.2013 09:00 2,4 C 74 % 1006,5 hPa 0,0 l/m 3,2 km/h O-NO -1,7 C 2,4 C 1,8 km/h
27.12.2013 10:00 5,9 C 87 % 1005,7 hPa 0,0 l/m 0,0 km/h SO 3,9 C 5,9 C 0,0 km/h
27.12.2013 11:00 6,9 C 85 % 1005,2 hPa 0,0 l/m 0,0 km/h W-SW 4,6 C 6,9 C 0,0 km/h
27.12.2013 12:00 11,3 C 70 % 1005,2 hPa 0,0 l/m 0,0 km/h O-SO 6,0 C 11,3 C 0,0 km/h
27.12.2013 13:00 8,3 C 75 % 1004,9 hPa 0,0 l/m 0,0 km/h S-SO 4,1 C 8,3 C 0,0 km/h
27.12.2013 14:00 9,2 C 75 % 1004,7 hPa 0,0 l/m 0,0 km/h SW 5,0 C 9,2 C 0,0 km/h
27.12.2013 15:00 13,3 C 52 % 1004,6 hPa 0,0 l/m 13,6 km/h S-SW 3,7 C 9,7 C 7,6 km/h
27.12.2013 16:00 11,3 C 56 % 1004,3 hPa 0,0 l/m 0,0 km/h O-SO 2,8 C 11,3 C 0,0 km/h
27.12.2013 17:00 4,9 C 74 % 1004,5 hPa 0,0 l/m 0,0 km/h O-SO 0,7 C 4,9 C 0,0 km/h
27.12.2013 18:00 3,8 C 81 % 1004,4 hPa 0,0 l/m 0,0 km/h O-SO 0,8 C 3,8 C 0,0 km/h
27.12.2013 19:00 3,9 C 84 % 1004,6 hPa 0,0 l/m 0,0 km/h N-NO 1,4 C 3,9 C 0,0 km/h
27.12.2013 20:00 3,6 C 86 % 1004,6 hPa 0,0 l/m 5,8 km/h O-NO 1,5 C 3,6 C 3,2 km/h
27.12.2013 21:00 2,9 C 87 % 1004,0 hPa 0,0 l/m 0,0 km/h NO 1,0 C 2,9 C 0,0 km/h
27.12.2013 22:00 3,2 C 87 % 1003,5 hPa 0,0 l/m 0,0 km/h O-SO 1,2 C 3,2 C 0,0 km/h
27.12.2013 23:00 3,6 C 86 % 1002,9 hPa 0,0 l/m 1,3 km/h O-SO 1,5 C 3,6 C 0,7 km/h
28.12.2013 00:00 3,6 C 86 % 1002,1 hPa 0,0 l/m 0,0 km/h O-NO 1,5 C 3,6 C 0,0 km/h
28.12.2013 01:00 3,0 C 86 % 1001,8 hPa 0,0 l/m 0,0 km/h NO 0,9 C 3,0 C 0,0 km/h
28.12.2013 02:00 2,7 C 85 % 1001,6 hPa 0,0 l/m 0,0 km/h NO 0,4 C 2,7 C 0,0 km/h
28.12.2013 03:00 2,4 C 85 % 1002,6 hPa 0,0 l/m 0,0 km/h O-SO 0,1 C 2,4 C 0,0 km/h
28.12.2013 04:00 2,7 C 84 % 1001,9 hPa 0,0 l/m 0,0 km/h O-SO 0,3 C 2,7 C 0,0 km/h
28.12.2013 05:00 2,9 C 82 % 1001,0 hPa 0,0 l/m 0,0 km/h O-NO 0,1 C 2,9 C 0,0 km/h
28.12.2013 06:00 3,3 C 81 % 1001,0 hPa 0,0 l/m 0,0 km/h NO 0,4 C 3,3 C 0,0 km/h
28.12.2013 07:00 3,6 C 82 % 1000,9 hPa 0,0 l/m 0,0 km/h O-SO 0,8 C 3,6 C 0,0 km/h
28.12.2013 08:00 4,7 C 85 % 1001,4 hPa 0,0 l/m 1,3 km/h O-SO 2,4 C 4,7 C 0,7 km/h
28.12.2013 09:00 5,3 C 86 % 1002,3 hPa 0,0 l/m 0,0 km/h O-SO 3,2 C 5,3 C 0,0 km/h
28.12.2013 10:00 6,5 C 87 % 1003,4 hPa 0,0 l/m 0,0 km/h S 4,5 C 6,5 C 0,0 km/h
28.12.2013 11:00 6,9 C 87 % 1004,1 hPa 1,0 l/m 1,3 km/h S 4,9 C 6,9 C 0,7 km/h
28.12.2013 12:00 7,2 C 87 % 1004,2 hPa 1,0 l/m 11,0 km/h SO 5,2 C 3,9 C 6,1 km/h
28.12.2013 13:00 7,1 C 86 % 1003,5 hPa 2,6 l/m 1,3 km/h S-SW 4,9 C 7,1 C 0,7 km/h
28.12.2013 14:00 7,4 C 85 % 1003,2 hPa 3,1 l/m 1,9 km/h S 5,0 C 7,4 C 1,1 km/h
28.12.2013 15:00 7,2 C 85 % 1003,5 hPa 2,1 l/m 1,9 km/h S-SW 4,9 C 7,2 C 1,1 km/h
28.12.2013 16:00 7,1 C 84 % 1004,0 hPa 2,6 l/m 5,8 km/h S-SW 4,6 C 7,1 C 3,2 km/h
28.12.2013 17:00 7,0 C 84 % 1004,3 hPa 1,0 l/m 8,4 km/h W-SW 4,5 C 5,4 C 4,7 km/h
28.12.2013 18:00 6,4 C 84 % 1005,4 hPa 2,1 l/m 22,7 km/h S 3,9 C -2,3 C 12,6 km/h
28.12.2013 19:00 5,4 C 85 % 1006,3 hPa 2,6 l/m 20,1 km/h S-SW 3,1 C -2,7 C 11,2 km/h
28.12.2013 20:00 5,4 C 85 % 1006,8 hPa 1,0 l/m 20,1 km/h N 3,1 C -2,7 C 11,2 km/h
Min-Datum _ 27.12.13 24.12.13 25.12.13 - 23.12.13 - 27.12.13 28.12.13 23.12.13
_ Min-Zeit 08:19 12:19 05:19 - 15:19 - 08:19 19:19 15:19
Minimum _ -0,4 C 40 % 989,9 hPa - 0,0 km/h - -3,3 C -2,7 C 0,0 km/h
Max-Datum _ 24.12.13 27.12.13 23.12.13 25.12.13 23.12.13 - 24.12.13 24.12.13 23.12.13
_ Max-Zeit 12:19 10:19 03:19 10:19 05:19 - 11:19 13:19 05:19
Maximum _ 18,6 C 87 % 1021,4 hPa 5,7 l/m 36,3 km/h
W-SW
- 9,1 C 18,0 C 20,2 km/h
W-SW
Durchschnitt _ 6,9 C 76 % 1002,4 hPa #62,2 l/m 5,8 km/h O-SO 2,8 C 5,4 C 3,2 km/h
www.sexauwetter.de